createdAt,value
2023-04-09T00:00:57.991Z,2.13
2023-04-09T00:06:20.932Z,2.27
2023-04-09T00:11:45.957Z,2.23
2023-04-09T00:17:08.993Z,2.20
2023-04-09T00:22:33.128Z,2.00
2023-04-09T00:27:58.101Z,2.20
2023-04-09T00:33:26.988Z,1.90
2023-04-09T00:38:50.385Z,1.90
2023-04-09T00:44:16.285Z,2.13
2023-04-09T00:49:39.031Z,1.70
2023-04-09T00:55:02.956Z,1.80
2023-04-09T01:00:30.980Z,1.77
2023-04-09T01:06:02.968Z,1.90
2023-04-09T01:11:35.156Z,1.90
2023-04-09T01:17:07.951Z,1.80
2023-04-09T01:22:46.159Z,2.10
2023-04-09T01:28:25.122Z,1.83
2023-04-09T01:33:50.028Z,1.87
2023-04-09T01:39:18.709Z,2.00
2023-04-09T01:44:48.174Z,1.90
2023-04-09T01:50:12.034Z,1.80
2023-04-09T01:55:36.092Z,2.17
2023-04-09T02:01:05.116Z,2.13
2023-04-09T02:06:31.063Z,2.20
2023-04-09T02:11:58.278Z,1.80
2023-04-09T02:24:13.079Z,2.10
2023-04-09T02:29:38.082Z,2.23
2023-04-09T02:35:10.053Z,2.17
2023-04-09T02:40:38.198Z,1.87
2023-04-09T02:46:05.292Z,2.07
2023-04-09T02:51:36.145Z,2.13
2023-04-09T02:56:59.252Z,1.90
2023-04-09T03:02:27.282Z,1.50
2023-04-09T03:07:55.148Z,2.07
2023-04-09T03:13:19.160Z,1.70
2023-04-09T03:18:44.099Z,1.97
2023-04-09T03:24:09.055Z,2.13
2023-04-09T03:29:38.088Z,1.97
2023-04-09T03:35:05.180Z,1.90
2023-04-09T03:40:34.090Z,2.10
2023-04-09T03:45:57.120Z,1.97
2023-04-09T03:51:26.273Z,2.10
2023-04-09T03:56:52.108Z,1.70
2023-04-09T04:02:22.323Z,1.83
2023-04-09T04:07:53.128Z,2.10
2023-04-09T04:13:33.284Z,1.93
2023-04-09T04:19:01.114Z,1.77
2023-04-09T04:24:35.339Z,1.50
2023-04-09T04:35:24.648Z,1.80
2023-04-09T04:40:34.842Z,2.10
2023-04-09T04:45:41.568Z,2.10
2023-04-09T04:50:57.280Z,2.23
2023-04-09T04:56:02.222Z,2.03
2023-04-09T05:01:05.529Z,1.80
2023-04-09T05:06:11.966Z,2.10
2023-04-09T05:11:19.672Z,1.93
2023-04-09T05:16:24.252Z,2.10
2023-04-09T05:21:38.598Z,2.10
2023-04-09T05:26:48.063Z,2.10
2023-04-09T05:31:51.742Z,2.40
2023-04-09T05:37:08.344Z,2.00
2023-04-09T05:42:14.738Z,2.43
2023-04-09T05:47:32.321Z,2.20
2023-04-09T05:52:49.740Z,2.57
2023-04-09T05:57:54.538Z,2.80
2023-04-09T06:02:58.681Z,2.90
2023-04-09T06:08:08.237Z,3.03
2023-04-09T06:13:14.332Z,3.17
2023-04-09T06:18:18.204Z,3.30
2023-04-09T06:23:22.847Z,3.17
2023-04-09T06:28:28.320Z,3.80
2023-04-09T06:33:33.365Z,3.17
2023-04-09T06:38:38.124Z,3.50
2023-04-09T06:43:48.368Z,4.23
2023-04-09T06:48:54.890Z,4.00
2023-04-09T06:54:02.910Z,3.67
2023-04-09T06:59:06.202Z,4.50
2023-04-09T07:04:12.801Z,4.70
2023-04-09T07:09:18.337Z,4.80
2023-04-09T07:14:22.126Z,4.10
2023-04-09T07:19:25.319Z,4.30
2023-04-09T07:24:32.650Z,4.70
2023-04-09T07:29:37.725Z,4.57
2023-04-09T07:34:41.784Z,4.27
2023-04-09T07:39:46.685Z,4.00
2023-04-09T07:44:53.837Z,4.70
2023-04-09T07:55:50.270Z,4.60
2023-04-09T08:01:16.731Z,4.63
2023-04-09T08:06:40.239Z,4.43
2023-04-09T08:12:05.292Z,4.93
2023-04-09T08:17:28.325Z,4.93
2023-04-09T08:22:54.437Z,5.03
2023-04-09T08:28:20.355Z,5.23
2023-04-09T08:33:44.378Z,5.47
2023-04-09T08:39:07.277Z,6.33
2023-04-09T08:44:34.319Z,7.87
2023-04-09T08:49:58.269Z,6.57
2023-04-09T08:55:26.426Z,8.10
2023-04-09T09:00:54.319Z,8.60
2023-04-09T09:06:17.364Z,7.83
2023-04-09T09:11:42.476Z,6.57
2023-04-09T09:17:26.201Z,5.90
2023-04-09T09:22:58.406Z,5.90
2023-04-09T09:28:23.280Z,7.10
2023-04-09T09:33:49.573Z,6.10
2023-04-09T09:39:16.329Z,6.80
2023-04-09T09:44:41.519Z,6.77
2023-04-09T09:50:14.570Z,6.13
2023-04-09T09:56:06.779Z,6.17
2023-04-09T10:01:36.407Z,5.93
2023-04-09T10:14:03.358Z,4.40
2023-04-09T10:19:39.436Z,4.30
2023-04-09T10:31:06.209Z,5.63
2023-04-09T10:37:08.510Z,3.90
2023-04-09T10:42:43.323Z,4.90
2023-04-09T10:54:06.387Z,3.50
2023-04-09T11:06:20.404Z,3.50
2023-04-09T11:12:18.479Z,2.67
2023-04-09T11:17:53.476Z,3.10
2023-04-09T11:23:19.017Z,3.20
2023-04-09T11:29:43.348Z,3.53
2023-04-09T11:42:37.346Z,3.30
2023-04-09T11:48:01.402Z,2.57
2023-04-09T11:53:32.605Z,2.67
2023-04-09T11:59:07.425Z,3.77
2023-04-09T12:04:37.745Z,3.50
2023-04-09T12:10:35.295Z,3.60
2023-04-09T12:16:16.683Z,5.20
2023-04-09T12:21:57.048Z,3.80
2023-04-09T12:28:20.525Z,3.10
2023-04-09T12:33:56.389Z,2.70
2023-04-09T12:39:20.494Z,3.53
2023-04-09T12:44:45.537Z,4.00
2023-04-09T12:50:10.425Z,4.90
2023-04-09T12:55:34.440Z,3.70
2023-04-09T13:01:01.439Z,4.67
2023-04-09T13:06:29.434Z,4.50
2023-04-09T13:11:54.913Z,3.00
2023-04-09T13:17:24.828Z,4.63
2023-04-09T13:22:55.473Z,3.80
2023-04-09T13:28:24.515Z,3.93
2023-04-09T13:33:53.493Z,3.10
2023-04-09T13:39:24.575Z,2.57
2023-04-09T13:44:48.732Z,2.90
2023-04-09T13:50:12.444Z,3.33
2023-04-09T13:55:52.315Z,3.80
2023-04-09T14:01:17.609Z,3.17
2023-04-09T14:06:44.594Z,3.00
2023-04-09T14:12:09.558Z,3.67
2023-04-09T14:17:50.069Z,2.80
2023-04-09T14:23:32.338Z,3.10
2023-04-09T14:29:23.595Z,2.60
2023-04-09T14:34:46.481Z,2.57
2023-04-09T14:40:09.453Z,3.10
2023-04-09T14:45:34.500Z,3.30
2023-04-09T14:50:58.551Z,3.70
2023-04-09T14:56:22.618Z,4.60
2023-04-09T15:01:55.341Z,2.73
2023-04-09T15:07:20.923Z,2.50
2023-04-09T15:12:47.568Z,2.20
2023-04-09T15:18:12.599Z,2.57
2023-04-09T15:23:36.555Z,2.63
2023-04-09T15:29:42.214Z,2.67
2023-04-09T15:47:20.804Z,2.67
2023-04-09T15:53:06.488Z,2.40
2023-04-09T16:05:47.257Z,2.20
2023-04-09T16:18:34.792Z,2.33
2023-04-09T16:24:08.731Z,2.33
2023-04-09T16:29:36.650Z,2.10
2023-04-09T16:34:59.789Z,1.93
2023-04-09T16:40:24.593Z,2.43
2023-04-09T16:45:49.604Z,2.08
2023-04-09T16:51:16.242Z,1.67
2023-04-09T16:56:38.687Z,1.80
2023-04-09T17:02:03.644Z,1.83
2023-04-09T17:07:33.864Z,2.07
2023-04-09T17:12:58.694Z,2.00
2023-04-09T17:18:23.569Z,2.00
2023-04-09T17:23:54.042Z,1.70
2023-04-09T17:29:16.612Z,1.77
2023-04-09T17:40:29.700Z,1.90
2023-04-09T17:45:53.767Z,1.60
2023-04-09T17:51:21.600Z,1.57
2023-04-09T17:56:55.277Z,1.50
2023-04-09T18:02:17.971Z,1.33
2023-04-09T18:07:46.665Z,1.47
2023-04-09T18:13:10.761Z,1.30
2023-04-09T18:18:35.672Z,1.50
2023-04-09T18:24:03.716Z,1.37
2023-04-09T18:29:29.740Z,1.57
2023-04-09T18:35:06.521Z,1.37
2023-04-09T18:53:02.969Z,1.40
2023-04-09T18:59:34.559Z,1.50
2023-04-09T19:11:51.809Z,1.60
2023-04-09T19:17:51.808Z,2.07
2023-04-09T19:24:07.076Z,2.00
2023-04-09T19:36:19.728Z,2.27
2023-04-09T19:41:51.020Z,1.90
2023-04-09T19:47:29.708Z,1.63
2023-04-09T19:53:32.503Z,2.10
2023-04-09T20:00:04.561Z,1.63
2023-04-09T20:06:06.760Z,1.60
2023-04-09T20:12:46.264Z,1.57
2023-04-09T20:24:55.004Z,1.70
2023-04-09T20:30:49.851Z,1.50
2023-04-09T20:36:20.323Z,1.70
2023-04-09T20:42:28.118Z,1.60
2023-04-09T20:47:55.759Z,2.20
2023-04-09T20:53:49.049Z,1.80
2023-04-09T20:59:21.548Z,1.93
2023-04-09T21:05:11.755Z,2.03
2023-04-09T21:11:27.686Z,1.90
2023-04-09T21:23:13.759Z,1.90
2023-04-09T21:35:33.505Z,2.27
2023-04-09T21:46:29.834Z,2.20
2023-04-09T21:52:24.574Z,2.40
2023-04-09T21:59:22.896Z,1.73
2023-04-09T22:05:08.270Z,2.10
2023-04-09T22:10:36.610Z,1.83
2023-04-09T22:16:27.849Z,2.00
2023-04-09T22:22:40.703Z,1.73
2023-04-09T22:34:39.007Z,1.80
2023-04-09T22:41:37.902Z,1.80
2023-04-09T22:47:20.945Z,2.10
2023-04-09T22:53:07.816Z,2.17
2023-04-09T22:58:33.754Z,2.10
2023-04-09T23:03:58.835Z,2.00
2023-04-09T23:09:25.342Z,2.07
2023-04-09T23:14:49.456Z,1.80
2023-04-09T23:20:17.838Z,1.90
2023-04-09T23:25:40.847Z,1.70
2023-04-09T23:31:04.766Z,1.80
2023-04-09T23:36:30.861Z,1.60
2023-04-09T23:41:53.808Z,1.73
2023-04-09T23:47:24.274Z,1.70
2023-04-09T23:52:54.791Z,1.83
